Time;durP1;ratioP1;P1;durP2;ratioP2;P2;SDS_P1;SDS_P2;PMS_P1;PMS_P2;Temp;Humidity;BMP_temperature;BMP_pressure;BME280_temperature;BME280_humidity;BME280_pressure;Samples;Min_cycle;Max_cycle;Signal;HPM_P1;HPM_P2
2023/05/04 00:02:11;;;;;;;8.98;5.97;;;12.10;1.00;;;;;;5059794;28;20463;-73
2023/05/04 00:04:36;;;;;;;8.05;5.80;;;12.10;1.00;;;;;;5059079;28;20045;-74
2023/05/04 00:07:02;;;;;;;8.80;5.97;;;12.10;1.00;;;;;;5042219;28;20079;-75
2023/05/04 00:09:28;;;;;;;8.88;6.10;;;12.10;1.00;;;;;;5059801;28;20059;-74
2023/05/04 00:11:54;;;;;;;9.95;6.00;;;12.20;1.00;;;;;;5059655;28;20095;-74
2023/05/04 00:14:19;;;;;;;9.10;5.55;;;12.20;1.00;;;;;;5058906;28;20131;-74
2023/05/04 00:16:45;;;;;;;8.13;5.80;;;12.10;1.00;;;;;;5059521;28;20094;-74
2023/05/04 00:19:11;;;;;;;9.43;5.78;;;12.10;1.00;;;;;;5058883;28;20052;-74
2023/05/04 00:21:37;;;;;;;7.60;5.80;;;12.10;1.00;;;;;;5058966;28;20083;-74
2023/05/04 00:24:03;;;;;;;11.20;6.57;;;12.00;1.00;;;;;;5059477;28;20036;-74
2023/05/04 00:26:29;;;;;;;9.57;6.30;;;12.00;1.00;;;;;;5058861;28;20460;-74
2023/05/04 00:28:54;;;;;;;8.57;6.40;;;11.90;1.00;;;;;;5058695;28;20067;-75
2023/05/04 00:31:20;;;;;;;9.77;6.13;;;12.00;1.00;;;;;;5042110;28;20033;-75
2023/05/04 00:33:46;;;;;;;8.05;5.95;;;11.90;1.00;;;;;;5058566;28;20118;-74
2023/05/04 00:36:15;;;;;;;9.63;6.45;;;11.90;1.00;;;;;;5059244;28;20053;-74
2023/05/04 00:38:53;;;;;;;8.18;6.20;;;11.80;1.00;;;;;;5042324;28;20354;-75
2023/05/04 00:41:20;;;;;;;11.77;6.82;;;11.80;1.00;;;;;;5059156;28;20040;-74
2023/05/04 00:43:46;;;;;;;9.43;6.90;;;11.70;1.00;;;;;;5058273;28;20039;-75
2023/05/04 00:46:12;;;;;;;9.88;6.65;;;11.70;1.00;;;;;;5059100;28;20355;-74
2023/05/04 00:48:39;;;;;;;10.45;6.43;;;11.60;1.00;;;;;;5058991;28;20029;-75
2023/05/04 00:51:06;;;;;;;8.38;6.43;;;11.60;1.00;;;;;;5059004;28;20063;-75
2023/05/04 00:53:34;;;;;;;11.45;6.45;;;11.60;1.00;;;;;;5057978;28;20060;-75
2023/05/04 00:56:00;;;;;;;9.30;6.57;;;11.60;1.00;;;;;;5058080;28;20036;-74
2023/05/04 00:58:26;;;;;;;10.00;5.57;;;11.60;1.00;;;;;;5059201;28;20017;-75
2023/05/04 01:00:52;;;;;;;10.13;6.25;;;11.50;1.00;;;;;;5058867;28;20108;-75
2023/05/04 01:03:18;;;;;;;8.25;6.40;;;11.50;1.00;;;;;;5057711;28;20148;-75
2023/05/04 01:06:00;;;;;;;11.10;6.50;;;11.50;1.00;;;;;;5059236;28;20033;-75
2023/05/04 01:08:31;;;;;;;10.93;6.30;;;11.30;1.00;;;;;;5057873;28;20154;-76
2023/05/04 01:11:06;;;;;;;8.50;6.22;;;11.40;1.00;;;;;;5041330;28;20274;-74
2023/05/04 01:13:34;;;;;;;8.15;6.43;;;11.40;1.00;;;;;;5057735;28;20029;-74
2023/05/04 01:16:02;;;;;;;9.65;6.40;;;11.40;1.00;;;;;;5057622;28;20396;-75
2023/05/04 01:18:28;;;;;;;10.77;6.63;;;11.40;1.00;;;;;;5057592;28;20116;-74
2023/05/04 01:20:53;;;;;;;13.75;6.40;;;11.40;1.00;;;;;;5058866;28;20108;-73
2023/05/04 01:23:20;;;;;;;11.10;6.30;;;11.30;1.00;;;;;;5057604;28;20037;-73
2023/05/04 01:25:53;;;;;;;10.98;6.40;;;11.30;1.00;;;;;;5058300;28;20025;-74
2023/05/04 01:28:26;;;;;;;10.68;6.22;;;11.50;1.00;;;;;;5057482;28;20029;-75
2023/05/04 01:30:58;;;;;;;8.82;6.22;;;11.40;1.00;;;;;;5057486;28;20086;-75
2023/05/04 01:33:25;;;;;;;11.18;6.10;;;11.40;1.00;;;;;;5057288;28;20025;-75
2023/05/04 01:35:51;;;;;;;9.55;6.88;;;11.40;1.00;;;;;;5057320;28;20029;-74
2023/05/04 01:38:17;;;;;;;13.60;6.90;;;11.50;1.00;;;;;;5057355;28;20343;-73
2023/05/04 01:40:43;;;;;;;9.75;6.30;;;11.50;1.00;;;;;;5057290;28;20041;-74
2023/05/04 01:43:11;;;;;;;8.18;6.57;;;11.30;1.00;;;;;;5057489;28;20393;-73
2023/05/04 01:45:37;;;;;;;7.97;7.07;;;11.40;1.00;;;;;;5057907;28;20043;-75
2023/05/04 01:48:04;;;;;;;10.77;6.57;;;11.40;1.00;;;;;;5057211;28;20025;-75
2023/05/04 01:50:31;;;;;;;9.38;6.82;;;11.30;1.00;;;;;;5057087;28;20379;-74
2023/05/04 01:52:56;;;;;;;10.57;6.47;;;11.10;1.00;;;;;;5056869;28;20051;-75
2023/05/04 01:55:22;;;;;;;12.40;6.60;;;11.20;1.00;;;;;;5040343;28;20056;-75
2023/05/04 01:57:48;;;;;;;9.43;6.88;;;11.20;1.00;;;;;;5057612;28;20029;-74
2023/05/04 02:00:15;;;;;;;12.50;6.78;;;11.30;1.00;;;;;;5057124;28;20036;-74
2023/05/04 02:02:43;;;;;;;9.43;7.10;;;11.10;1.00;;;;;;5057467;28;20360;-75
2023/05/04 02:05:12;;;;;;;8.10;6.78;;;11.20;1.00;;;;;;5056484;28;20049;-74
2023/05/04 02:07:38;;;;;;;12.77;7.25;;;11.20;1.00;;;;;;5056754;28;20047;-74
2023/05/04 02:10:04;;;;;;;11.18;6.88;;;11.10;1.00;;;;;;5056789;28;20095;-74
2023/05/04 02:12:30;;;;;;;14.27;7.35;;;11.20;1.00;;;;;;5040124;28;20440;-74
2023/05/04 02:14:57;;;;;;;9.38;6.97;;;11.20;1.00;;;;;;5040297;28;20033;-74
2023/05/04 02:17:23;;;;;;;9.32;6.40;;;11.10;1.00;;;;;;5056616;28;20029;-74
2023/05/04 02:19:49;;;;;;;9.45;6.82;;;11.10;1.00;;;;;;5056722;28;20053;-75
2023/05/04 02:22:15;;;;;;;13.82;7.05;;;11.20;1.00;;;;;;5040441;28;20039;-73
2023/05/04 02:24:41;;;;;;;10.82;7.15;;;11.10;1.00;;;;;;5056469;28;20029;-74
2023/05/04 02:27:07;;;;;;;11.32;6.65;;;11.10;1.00;;;;;;5056422;28;20074;-72
2023/05/04 02:29:36;;;;;;;10.68;7.18;;;10.90;1.00;;;;;;5023740;28;20033;-74
2023/05/04 02:32:02;;;;;;;8.82;6.70;;;10.80;1.00;;;;;;5057048;28;20025;-72
2023/05/04 02:34:28;;;;;;;8.15;6.78;;;10.70;1.00;;;;;;5040403;28;20413;-75
2023/05/04 02:36:54;;;;;;;12.50;6.90;;;10.70;1.00;;;;;;5056362;28;20055;-73
2023/05/04 02:39:21;;;;;;;11.18;6.93;;;10.70;1.00;;;;;;5056483;28;20041;-75
2023/05/04 02:41:46;;;;;;;9.10;6.65;;;10.60;1.00;;;;;;5057198;28;20390;-74
2023/05/04 02:44:12;;;;;;;10.30;6.60;;;10.60;1.00;;;;;;5056862;28;20047;-77
2023/05/04 02:46:38;;;;;;;9.13;7.03;;;10.50;1.00;;;;;;5057484;28;20068;-75
2023/05/04 02:49:04;;;;;;;9.68;6.90;;;10.50;1.00;;;;;;5056127;28;20033;-75
2023/05/04 02:51:29;;;;;;;8.73;7.07;;;10.50;1.00;;;;;;5057362;28;20076;-74
2023/05/04 02:53:55;;;;;;;7.70;6.55;;;10.40;1.00;;;;;;5056113;28;20285;-74
2023/05/04 02:56:21;;;;;;;13.40;7.10;;;10.50;1.00;;;;;;5057361;28;20032;-74
2023/05/04 02:58:47;;;;;;;9.45;7.10;;;10.50;1.00;;;;;;5055890;28;20036;-74
2023/05/04 03:01:13;;;;;;;10.85;7.50;;;10.50;1.00;;;;;;5056763;28;20388;-73
2023/05/04 03:03:38;;;;;;;15.40;7.68;;;10.50;1.00;;;;;;5039021;28;20320;-75
2023/05/04 03:06:04;;;;;;;11.07;7.15;;;10.40;1.00;;;;;;5056665;28;20183;-75
2023/05/04 03:08:30;;;;;;;10.00;7.13;;;10.40;1.00;;;;;;5056193;28;20404;-74
2023/05/04 03:10:56;;;;;;;11.80;7.70;;;10.40;1.00;;;;;;5057080;28;20055;-74
2023/05/04 03:13:22;;;;;;;10.52;7.68;;;10.30;1.00;;;;;;5060995;28;20037;-74
2023/05/04 03:15:48;;;;;;;9.65;7.20;;;10.20;1.00;;;;;;5059950;28;20465;-74
2023/05/04 03:18:14;;;;;;;8.32;6.95;;;10.40;1.00;;;;;;5076558;28;20107;-73
2023/05/04 03:20:41;;;;;;;12.55;7.07;;;10.40;1.00;;;;;;5059882;28;20431;-73
2023/05/04 03:23:08;;;;;;;9.60;7.35;;;10.40;1.00;;;;;;5060235;28;20037;-73
2023/05/04 03:25:34;;;;;;;12.35;7.55;;;10.50;1.00;;;;;;5060094;28;20099;-73
2023/05/04 03:28:00;;;;;;;11.32;7.50;;;10.50;1.00;;;;;;5059857;28;20308;-75
2023/05/04 03:30:26;;;;;;;10.98;7.20;;;10.30;1.00;;;;;;5059806;28;20131;-74
2023/05/04 03:32:55;;;;;;;9.80;7.05;;;10.10;1.00;;;;;;5059610;28;20047;-73
2023/05/04 03:35:21;;;;;;;9.82;7.53;;;10.00;1.00;;;;;;5059770;28;20033;-73
2023/05/04 03:37:47;;;;;;;12.38;6.97;;;9.90;1.00;;;;;;5059594;28;20029;-73
2023/05/04 03:40:13;;;;;;;9.98;7.13;;;9.80;1.00;;;;;;5059975;28;20021;-73
2023/05/04 03:42:39;;;;;;;9.90;7.30;;;9.90;1.00;;;;;;5060630;28;20063;-73
2023/05/04 03:45:06;;;;;;;13.20;8.30;;;10.00;1.00;;;;;;5060381;28;20506;-74
2023/05/04 03:47:32;;;;;;;9.82;7.50;;;10.00;1.00;;;;;;5059305;28;20036;-73
2023/05/04 03:49:58;;;;;;;9.25;7.47;;;9.90;1.00;;;;;;5059310;28;20033;-73
2023/05/04 03:52:24;;;;;;;10.50;7.43;;;9.90;1.00;;;;;;5060107;28;20036;-73
2023/05/04 03:54:50;;;;;;;9.85;7.60;;;9.90;1.00;;;;;;5060047;28;20036;-73
2023/05/04 03:57:16;;;;;;;8.93;7.93;;;9.90;1.00;;;;;;5059257;28;20114;-72
2023/05/04 03:59:41;;;;;;;11.65;7.43;;;10.00;1.00;;;;;;5059185;28;20036;-73
2023/05/04 04:02:07;;;;;;;14.45;8.35;;;9.90;1.00;;;;;;5042418;28;20128;-73
2023/05/04 04:04:34;;;;;;;11.45;7.90;;;9.80;1.00;;;;;;5041542;28;20049;-73
2023/05/04 04:07:00;;;;;;;11.90;7.72;;;9.70;1.00;;;;;;5041140;28;20037;-72
2023/05/04 04:09:28;;;;;;;11.80;8.13;;;9.70;1.00;;;;;;5057644;28;20308;-71
2023/05/04 04:11:53;;;;;;;11.00;7.53;;;9.70;1.00;;;;;;5059019;28;20039;-73
2023/05/04 04:14:19;;;;;;;12.35;8.40;;;9.70;1.00;;;;;;5057470;28;20041;-71
2023/05/04 04:16:45;;;;;;;10.50;7.97;;;9.60;1.00;;;;;;5057510;28;20111;-72
2023/05/04 04:19:11;;;;;;;14.73;9.02;;;9.60;1.00;;;;;;5057202;28;20441;-73
2023/05/04 04:21:37;;;;;;;13.48;7.70;;;9.60;1.00;;;;;;5056927;28;20036;-73
2023/05/04 04:24:03;;;;;;;13.73;8.23;;;9.60;1.00;;;;;;5057271;28;20170;-73
2023/05/04 04:26:29;;;;;;;12.20;8.35;;;9.60;1.00;;;;;;5057576;28;20404;-73
2023/05/04 04:28:54;;;;;;;9.60;7.43;;;9.70;1.00;;;;;;5058066;28;20140;-73
2023/05/04 04:31:20;;;;;;;12.05;8.25;;;9.60;1.00;;;;;;5057399;28;20064;-71
2023/05/04 04:33:48;;;;;;;12.57;8.27;;;9.60;1.00;;;;;;5057928;28;20033;-73
2023/05/04 04:36:17;;;;;;;13.68;9.27;;;9.70;1.00;;;;;;5056811;28;20090;-72
2023/05/04 04:38:43;;;;;;;17.60;8.30;;;9.70;1.00;;;;;;5057729;28;20021;-71
2023/05/04 04:41:09;;;;;;;13.85;8.40;;;9.60;1.00;;;;;;5057758;28;20029;-72
2023/05/04 04:43:35;;;;;;;14.52;8.77;;;9.70;1.00;;;;;;5056928;28;20128;-71
2023/05/04 04:46:02;;;;;;;9.57;7.82;;;9.70;1.00;;;;;;5057918;28;20108;-71
2023/05/04 04:48:28;;;;;;;12.38;9.02;;;9.80;1.00;;;;;;5057861;28;20033;-70
2023/05/04 04:50:54;;;;;;;17.30;8.63;;;9.90;1.00;;;;;;5057001;28;20036;-73
2023/05/04 04:53:20;;;;;;;12.50;7.97;;;9.90;1.00;;;;;;5040141;28;20037;-72
2023/05/04 04:55:46;;;;;;;15.88;8.43;;;10.00;1.00;;;;;;5040472;28;20033;-72
2023/05/04 04:58:12;;;;;;;23.05;8.35;;;10.00;1.00;;;;;;5057680;28;20264;-72
2023/05/04 05:00:38;;;;;;;17.00;9.02;;;10.00;1.00;;;;;;5057713;28;20036;-71
2023/05/04 05:03:04;;;;;;;14.07;8.30;;;10.00;1.00;;;;;;5016205;28;1184675;-72
2023/05/04 05:05:30;;;;;;;13.18;8.88;;;10.10;1.00;;;;;;5058041;28;20037;-72
2023/05/04 05:07:56;;;;;;;17.13;9.35;;;10.30;1.00;;;;;;5057700;28;20036;-74
2023/05/04 05:10:22;;;;;;;15.25;8.02;;;10.30;1.00;;;;;;5058461;28;20052;-72
2023/05/04 05:12:51;;;;;;;13.02;8.57;;;10.30;1.00;;;;;;5058512;28;20025;-73
2023/05/04 05:15:17;;;;;;;14.50;8.98;;;10.30;1.00;;;;;;5057686;28;20037;-73
2023/05/04 05:17:42;;;;;;;12.05;8.27;;;10.10;1.00;;;;;;5041050;28;20033;-72
2023/05/04 05:20:10;;;;;;;11.95;7.97;;;10.10;1.00;;;;;;5058464;28;20296;-74
2023/05/04 05:22:39;;;;;;;15.07;8.30;;;10.00;1.00;;;;;;5058536;28;20033;-72
2023/05/04 05:25:06;;;;;;;17.08;8.80;;;9.90;1.00;;;;;;5057525;28;20040;-72
2023/05/04 05:27:33;;;;;;;14.90;8.40;;;9.90;1.00;;;;;;5058179;28;20430;-73
2023/05/04 05:30:04;;;;;;;12.73;8.77;;;10.00;1.00;;;;;;5058206;28;20380;-72
2023/05/04 05:32:30;;;;;;;10.40;8.13;;;10.10;1.00;;;;;;5058082;28;20053;-73
2023/05/04 05:34:56;;;;;;;16.27;8.60;;;10.10;1.00;;;;;;5039629;28;20029;-72
2023/05/04 05:37:22;;;;;;;9.93;8.23;;;10.20;1.00;;;;;;5057863;28;20102;-74
2023/05/04 05:39:48;;;;;;;11.85;8.38;;;10.30;1.00;;;;;;5040587;28;20033;-74
2023/05/04 05:42:13;;;;;;;14.57;8.70;;;10.10;1.00;;;;;;5057641;28;20047;-71
2023/05/04 05:44:39;;;;;;;11.48;8.55;;;10.00;1.00;;;;;;5058167;28;20281;-76
2023/05/04 05:47:05;;;;;;;11.88;8.23;;;10.00;1.00;;;;;;5057647;28;20118;-77
2023/05/04 05:49:31;;;;;;;13.20;8.45;;;10.00;1.00;;;;;;5040615;28;20048;-75
2023/05/04 05:51:57;;;;;;;12.25;8.30;;;10.20;1.00;;;;;;5057699;28;20025;-72
2023/05/04 05:54:24;;;;;;;13.02;8.82;;;10.20;1.00;;;;;;5040354;28;20056;-74
2023/05/04 05:56:50;;;;;;;11.52;8.55;;;10.30;1.00;;;;;;5057065;28;20040;-72
2023/05/04 05:59:16;;;;;;;12.40;8.68;;;10.50;1.00;;;;;;5057519;28;20049;-71
2023/05/04 06:01:42;;;;;;;11.93;8.02;;;10.60;1.00;;;;;;5057517;28;20430;-74
2023/05/04 06:04:07;;;;;;;12.20;8.32;;;10.80;1.00;;;;;;5056719;28;20049;-72
2023/05/04 06:06:34;;;;;;;13.13;8.38;;;10.80;1.00;;;;;;5056530;28;20076;-72
2023/05/04 06:08:59;;;;;;;11.10;8.68;;;10.90;1.00;;;;;;5056496;28;20332;-74
2023/05/04 06:11:28;;;;;;;12.48;8.52;;;10.80;1.00;;;;;;5056520;28;20098;-76
2023/05/04 06:13:54;;;;;;;12.60;8.20;;;11.00;1.00;;;;;;5057192;28;20393;-73
2023/05/04 06:16:20;;;;;;;14.75;8.30;;;11.00;1.00;;;;;;5039847;28;20033;-73
2023/05/04 06:18:46;;;;;;;11.05;8.52;;;11.10;1.00;;;;;;5056501;28;20120;-68
2023/05/04 06:21:12;;;;;;;10.73;8.82;;;11.30;1.00;;;;;;5056990;28;20133;-73
2023/05/04 06:23:37;;;;;;;13.63;8.23;;;11.50;1.00;;;;;;5056982;28;20029;-73
2023/05/04 06:26:04;;;;;;;12.32;7.65;;;11.60;1.00;;;;;;5057020;28;20036;-72
2023/05/04 06:28:31;;;;;;;17.52;8.38;;;11.50;1.00;;;;;;5056225;28;20079;-74
2023/05/04 06:30:56;;;;;;;12.00;8.27;;;11.40;1.00;;;;;;5056421;28;20313;-75
2023/05/04 06:33:25;;;;;;;13.57;7.78;;;11.60;1.00;;;;;;5056915;28;20032;-74
2023/05/04 06:35:52;;;;;;;11.10;8.27;;;11.60;1.00;;;;;;5040088;28;20304;-75
2023/05/04 06:38:18;;;;;;;12.35;7.90;;;11.70;1.00;;;;;;5056885;28;20110;-74
2023/05/04 06:40:45;;;;;;;13.05;8.30;;;11.80;1.00;;;;;;5055940;28;20024;-74
2023/05/04 06:43:10;;;;;;;13.25;7.97;;;12.00;1.00;;;;;;5056755;28;20044;-70
2023/05/04 06:45:38;;;;;;;12.40;8.32;;;12.00;1.00;;;;;;5040093;28;20403;-72
2023/05/04 06:48:04;;;;;;;11.48;7.55;;;12.10;1.00;;;;;;5056076;28;20056;-73
2023/05/04 06:50:32;;;;;;;11.90;7.57;;;12.10;1.00;;;;;;5056031;28;20316;-73
2023/05/04 06:53:09;;;;;;;11.18;7.35;;;12.60;1.00;;;;;;5056682;28;20029;-73
2023/05/04 06:55:36;;;;;;;9.57;7.18;;;12.60;1.00;;;;;;5055854;28;20094;-72
2023/05/04 06:58:02;;;;;;;11.48;7.65;;;12.70;1.00;;;;;;5056905;28;20343;-70
2023/05/04 07:00:28;;;;;;;10.23;7.80;;;12.70;1.00;;;;;;5056554;28;20068;-74
2023/05/04 07:02:54;;;;;;;10.00;7.57;;;13.00;1.00;;;;;;5072519;28;20040;-72
2023/05/04 07:05:21;;;;;;;10.38;7.53;;;13.10;1.00;;;;;;5056715;28;20044;-74
2023/05/04 07:07:47;;;;;;;12.35;7.43;;;13.20;1.00;;;;;;5056796;28;20128;-73
2023/05/04 07:10:14;;;;;;;9.75;6.95;;;13.30;1.00;;;;;;5056050;28;20032;-72
2023/05/04 07:12:40;;;;;;;12.98;8.13;;;13.20;1.00;;;;;;5056996;28;20408;-73
2023/05/04 07:15:07;;;;;;;10.45;7.47;;;13.30;1.00;;;;;;5056633;28;20033;-73
2023/05/04 07:17:33;;;;;;;12.43;7.88;;;13.40;1.00;;;;;;5039185;28;20343;-72
2023/05/04 07:20:03;;;;;;;12.88;7.70;;;13.40;1.00;;;;;;5056486;28;20021;-72
2023/05/04 07:22:30;;;;;;;11.85;6.95;;;13.40;1.00;;;;;;5056483;28;20022;-73
2023/05/04 07:24:57;;;;;;;9.25;6.90;;;13.50;1.00;;;;;;5055998;28;20040;-70
2023/05/04 07:27:23;;;;;;;9.05;7.40;;;13.80;1.00;;;;;;5056844;28;20029;-71
2023/05/04 07:29:51;;;;;;;11.48;8.00;;;13.90;1.00;;;;;;5055699;28;20056;-73
2023/05/04 07:32:18;;;;;;;12.57;8.38;;;14.00;1.00;;;;;;5055592;28;20412;-71
2023/05/04 07:34:44;;;;;;;9.20;7.32;;;14.00;1.00;;;;;;5055763;28;20044;-74
2023/05/04 07:37:11;;;;;;;9.32;6.80;;;14.00;1.00;;;;;;5056403;28;20167;-73
2023/05/04 07:39:40;;;;;;;12.23;7.68;;;14.20;1.00;;;;;;5056405;28;20049;-71
2023/05/04 07:42:07;;;;;;;9.20;7.47;;;14.10;1.00;;;;;;5056209;28;20341;-73
2023/05/04 07:44:33;;;;;;;12.27;8.30;;;14.20;1.00;;;;;;5055481;28;20062;-70
2023/05/04 07:46:59;;;;;;;12.00;7.13;;;14.10;1.00;;;;;;5056215;28;20069;-73
2023/05/04 07:49:25;;;;;;;11.73;7.88;;;14.10;1.00;;;;;;5072478;28;20036;-71
2023/05/04 07:51:51;;;;;;;10.27;7.40;;;14.10;1.00;;;;;;5056024;28;20051;-70
2023/05/04 07:54:17;;;;;;;11.55;7.57;;;14.20;1.00;;;;;;5056238;28;20087;-70
2023/05/04 07:56:43;;;;;;;12.63;7.28;;;14.20;1.00;;;;;;5056299;28;20025;-73
2023/05/04 07:59:09;;;;;;;9.50;7.35;;;14.30;1.00;;;;;;5060013;28;20032;-72
2023/05/04 08:01:35;;;;;;;9.80;6.93;;;14.20;1.00;;;;;;5060116;28;20025;-71
2023/05/04 08:04:01;;;;;;;10.88;7.40;;;14.30;1.00;;;;;;5059288;28;20347;-71
2023/05/04 08:06:27;;;;;;;11.52;7.63;;;14.20;1.00;;;;;;5059047;28;20029;-73
2023/05/04 08:08:53;;;;;;;12.15;7.47;;;14.20;1.00;;;;;;5059729;28;20043;-74
2023/05/04 08:11:19;;;;;;;12.70;7.70;;;14.30;1.00;;;;;;5058894;28;20037;-72
2023/05/04 08:13:46;;;;;;;8.35;7.10;;;14.50;1.00;;;;;;5058840;28;20378;-73
2023/05/04 08:16:12;;;;;;;9.10;7.78;;;14.80;1.00;;;;;;5075489;28;20044;-73
2023/05/04 08:18:38;;;;;;;11.07;6.82;;;14.90;1.00;;;;;;5058942;28;20033;-70
2023/05/04 08:21:04;;;;;;;13.30;7.47;;;15.00;1.00;;;;;;5059325;28;20029;-71
2023/05/04 08:23:33;;;;;;;9.00;7.05;;;15.10;1.00;;;;;;5059675;28;20033;-71
2023/05/04 08:26:02;;;;;;;8.63;7.10;;;15.20;1.00;;;;;;5059523;28;20040;-71
2023/05/04 08:28:29;;;;;;;8.88;7.75;;;15.10;1.00;;;;;;5059320;28;20033;-72
2023/05/04 08:30:56;;;;;;;9.27;6.70;;;15.10;1.00;;;;;;5059512;28;20405;-71
2023/05/04 08:33:22;;;;;;;8.85;6.53;;;15.20;1.00;;;;;;5059579;28;20029;-70
2023/05/04 08:35:48;;;;;;;10.68;7.10;;;15.50;1.00;;;;;;5059471;28;20025;-75
2023/05/04 08:38:14;;;;;;;10.40;6.20;;;15.70;1.00;;;;;;5058346;28;20352;-71
2023/05/04 08:40:42;;;;;;;11.20;6.50;;;15.80;1.00;;;;;;5059222;28;20112;-73
2023/05/04 08:43:08;;;;;;;9.10;6.90;;;15.90;1.00;;;;;;5058404;28;20031;-73
2023/05/04 08:45:38;;;;;;;7.60;6.00;;;16.20;1.00;;;;;;5059191;28;20029;-75
2023/05/04 08:48:06;;;;;;;8.48;5.93;;;16.30;1.00;;;;;;5059498;28;20132;-71
2023/05/04 08:50:36;;;;;;;7.75;6.15;;;16.50;1.00;;;;;;5059380;28;20029;-72
2023/05/04 08:53:05;;;;;;;7.90;6.20;;;16.60;99.90;;;;;;5058278;28;20029;-72
2023/05/04 08:55:36;;;;;;;8.00;5.78;;;16.80;99.90;;;;;;5058228;28;20098;-74
2023/05/04 08:58:09;;;;;;;6.80;5.57;;;17.00;99.90;;;;;;5059213;28;20094;-70
2023/05/04 09:00:37;;;;;;;9.23;5.82;;;17.10;99.90;;;;;;5059602;28;20396;-73
2023/05/04 09:03:04;;;;;;;9.60;5.72;;;17.20;99.90;;;;;;5057910;28;20029;-75
2023/05/04 09:05:31;;;;;;;12.95;6.40;;;17.20;99.90;;;;;;5058794;28;20029;-74
2023/05/04 09:07:57;;;;;;;8.60;5.88;;;17.40;99.90;;;;;;5040637;28;20025;-75
2023/05/04 09:10:24;;;;;;;10.38;5.90;;;17.70;1.00;;;;;;5058374;28;20032;-73
2023/05/04 09:12:52;;;;;;;7.30;5.22;;;17.80;1.00;;;;;;5057768;28;20048;-73
2023/05/04 09:15:19;;;;;;;6.05;5.18;;;17.80;1.00;;;;;;5058583;28;20091;-74
2023/05/04 09:17:59;;;;;;;16.00;5.55;;;17.90;1.00;;;;;;5058645;28;20055;-72
2023/05/04 09:20:25;;;;;;;7.70;4.82;;;18.00;1.00;;;;;;5058818;28;20029;-73
2023/05/04 09:23:06;;;;;;;7.20;5.15;;;18.10;99.90;;;;;;5058589;28;20400;-72
2023/05/04 09:25:52;;;;;;;6.57;4.82;;;18.00;99.90;;;;;;5058594;28;20044;-72
2023/05/04 09:28:20;;;;;;;10.63;5.47;;;18.10;1.00;;;;;;5074777;28;20039;-75
2023/05/04 09:30:47;;;;;;;7.82;5.22;;;18.20;99.90;;;;;;5058840;28;20041;-74
2023/05/04 09:33:15;;;;;;;6.30;4.70;;;18.40;99.90;;;;;;5058535;28;20047;-73
2023/05/04 09:35:43;;;;;;;7.28;4.70;;;18.60;99.90;;;;;;5058464;28;20088;-75
2023/05/04 09:38:09;;;;;;;6.90;4.50;;;18.70;99.90;;;;;;5057505;28;20430;-68
2023/05/04 09:40:36;;;;;;;5.25;4.53;;;18.70;99.90;;;;;;5057479;28;20466;-74
2023/05/04 09:43:02;;;;;;;6.45;4.70;;;18.90;1.00;;;;;;5057901;28;20044;-71
2023/05/04 09:45:45;;;;;;;9.00;4.55;;;19.10;99.90;;;;;;5057803;28;20302;-71
2023/05/04 09:48:14;;;;;;;;;;;19.20;99.90;;;;;;5058227;28;20045;-72
2023/05/04 09:50:54;;;;;;;6.38;4.32;;;19.30;1.00;;;;;;5073906;28;19951;-73
2023/05/04 09:53:24;;;;;;;6.03;4.43;;;19.40;68.20;;;;;;5057761;28;20037;-74
2023/05/04 09:56:16;;;;;;;8.20;4.90;;;19.50;14.30;;;;;;5057753;28;20319;-72
2023/05/04 09:58:44;;;;;;;7.75;4.55;;;19.70;1.00;;;;;;5057687;28;20029;-72
2023/05/04 10:01:10;;;;;;;5.70;4.72;;;19.80;99.90;;;;;;5057037;28;20032;-73
2023/05/04 10:03:36;;;;;;;7.18;4.60;;;19.80;99.90;;;;;;5057852;28;20056;-70
2023/05/04 10:06:04;;;;;;;6.60;4.65;;;19.90;1.00;;;;;;5058005;28;20254;-71
2023/05/04 10:08:31;;;;;;;6.90;4.47;;;19.80;1.00;;;;;;5057462;28;20115;-71
2023/05/04 10:10:57;;;;;;;6.90;4.85;;;19.90;1.00;;;;;;5056811;28;20033;-75
2023/05/04 10:13:26;;;;;;;8.13;5.75;;;20.10;1.00;;;;;;5057664;28;20094;-72
2023/05/04 10:16:08;;;;;;;6.43;5.10;;;20.30;1.00;;;;;;5056827;28;20082;-72
2023/05/04 10:19:22;;;;;;;7.53;4.72;;;20.50;1.00;;;;;;5057430;28;20025;-71
2023/05/04 10:22:09;;;;;;;4.80;4.00;;;20.60;1.00;;;;;;5048226;28;20041;-73
2023/05/04 10:25:03;;;;;;;4.82;4.18;;;20.90;99.90;;;;;;5057456;28;20108;-73
2023/05/04 10:27:55;;;;;;;7.43;4.57;;;21.20;48.30;;;;;;5057622;28;20033;-69
2023/05/04 10:30:22;;;;;;;8.00;4.30;;;21.40;1.00;;;;;;5057863;28;20296;-75
2023/05/04 10:32:57;;;;;;;5.95;4.35;;;21.50;99.90;;;;;;5057009;28;20286;-73
2023/05/04 10:35:24;;;;;;;8.48;4.57;;;21.70;84.80;;;;;;5057630;28;20280;-68
2023/05/04 10:37:55;;;;;;;4.88;4.32;;;21.90;1.00;;;;;;5058212;28;20269;-72
2023/05/04 10:40:35;;;;;;;6.88;4.10;;;21.90;1.00;;;;;;5056970;28;20040;-68
2023/05/04 10:43:01;;;;;;;4.80;3.90;;;22.10;1.00;;;;;;5056943;28;20041;-71
2023/05/04 10:45:38;;;;;;;5.88;4.05;;;22.40;99.90;;;;;;5039857;28;20059;-70
2023/05/04 10:48:04;;;;;;;4.82;3.95;;;22.80;1.00;;;;;;5057173;28;20040;-69
2023/05/04 10:50:49;;;;;;;5.25;3.75;;;22.90;1.00;;;;;;5057542;28;20414;-75
2023/05/04 10:53:29;;;;;;;4.95;3.65;;;23.10;99.90;;;;;;5055832;28;20135;-68
2023/05/04 10:55:55;;;;;;;6.68;3.70;;;23.40;1.00;;;;;;5056879;28;20067;-69
2023/05/04 10:58:27;;;;;;;6.00;3.15;;;23.90;1.00;;;;;;5056309;28;20080;-70
2023/05/04 11:00:53;;;;;;;5.45;3.45;;;24.50;1.00;;;;;;5056126;28;20028;-72
2023/05/04 11:03:21;;;;;;;6.07;3.17;;;25.50;99.90;;;;;;5055789;28;20045;-71
2023/05/04 11:05:53;;;;;;;4.15;3.50;;;26.30;16.40;;;;;;5057421;28;20040;-71
2023/05/04 11:08:25;;;;;;;5.32;3.47;;;27.20;1.00;;;;;;5056992;28;20312;-70
2023/05/04 11:11:07;;;;;;;4.85;3.70;;;28.50;1.00;;;;;;5055919;28;20040;-70
2023/05/04 11:13:34;;;;;;;6.90;3.58;;;28.70;1.00;;;;;;5055956;28;20043;-68
2023/05/04 11:16:00;;;;;;;3.53;3.10;;;27.50;1.00;;;;;;5056682;28;20027;-69
2023/05/04 11:18:30;;;;;;;4.03;3.17;;;27.60;1.00;;;;;;5056617;28;20021;-68
2023/05/04 11:20:57;;;;;;;5.65;3.38;;;27.10;1.00;;;;;;5056664;28;20035;-68
2023/05/04 11:23:23;;;;;;;6.30;3.88;;;27.20;1.00;;;;;;5056534;28;20154;-69
2023/05/04 11:25:49;;;;;;;6.93;4.00;;;27.30;1.00;;;;;;5056622;28;20092;-68
2023/05/04 11:28:15;;;;;;;6.35;3.25;;;27.40;1.00;;;;;;5056569;28;20029;-69
2023/05/04 11:30:43;;;;;;;4.35;3.30;;;27.80;1.00;;;;;;5039357;28;20407;-65
2023/05/04 11:33:11;;;;;;;4.88;3.90;;;27.80;1.00;;;;;;5058766;28;20108;-67
2023/05/04 11:35:37;;;;;;;6.20;3.75;;;26.90;1.00;;;;;;5059660;28;20029;-68
2023/05/04 11:38:03;;;;;;;3.55;3.25;;;26.70;1.00;;;;;;5060326;28;20102;-69
2023/05/04 11:40:29;;;;;;;4.05;3.60;;;27.10;1.00;;;;;;5060304;28;20025;-68
2023/05/04 11:42:56;;;;;;;4.18;3.78;;;27.70;1.00;;;;;;5059501;28;20037;-68
2023/05/04 11:45:25;;;;;;;6.82;3.60;;;27.00;1.00;;;;;;5060184;28;20021;-68
2023/05/04 11:47:52;;;;;;;4.38;3.10;;;28.10;1.00;;;;;;5060116;28;20120;-68
2023/05/04 11:50:19;;;;;;;4.70;4.00;;;28.60;1.00;;;;;;5060195;28;20369;-69
2023/05/04 11:52:46;;;;;;;5.28;3.53;;;27.90;99.90;;;;;;5060323;28;20167;-67
2023/05/04 11:55:27;;;;;;;4.35;3.47;;;27.40;1.00;;;;;;5060551;28;20033;-69
2023/05/04 11:57:57;;;;;;;3.70;3.30;;;28.10;1.00;;;;;;5059941;28;20032;-68
2023/05/04 12:00:40;;;;;;;4.10;3.28;;;28.00;99.90;;;;;;5060409;28;20052;-68
2023/05/04 12:03:38;;;;;;;9.13;3.38;;;28.20;99.90;;;;;;5059797;28;20025;-70
2023/05/04 12:06:05;;;;;;;3.90;3.50;;;28.20;99.90;;;;;;5057693;28;20136;-69
2023/05/04 12:08:40;;;;;;;4.70;4.25;;;28.70;99.90;;;;;;5059179;28;20052;-73
2023/05/04 12:11:20;;;;;;;7.03;3.92;;;28.60;99.90;;;;;;5060270;28;20101;-69
2023/05/04 12:14:05;;;;;;;5.45;4.47;;;27.70;99.90;;;;;;5058900;28;20384;-66
2023/05/04 12:16:32;;;;;;;7.50;3.70;;;27.40;99.90;;;;;;5060246;28;20031;-67
2023/05/04 12:19:03;;;;;;;5.30;3.13;;;28.00;99.90;;;;;;5059528;28;20037;-68
2023/05/04 12:21:30;;;;;;;3.95;3.55;;;28.60;99.90;;;;;;5059091;28;20167;-67
2023/05/04 12:23:57;;;;;;;6.97;3.70;;;29.10;99.90;;;;;;5058775;28;20072;-68
2023/05/04 12:26:22;;;;;;;7.18;3.90;;;30.40;99.90;;;;;;5058551;28;20046;-68
2023/05/04 12:28:48;;;;;;;3.90;3.50;;;30.40;99.90;;;;;;5059521;28;20037;-68
2023/05/04 12:31:14;;;;;;;6.53;3.30;;;30.00;99.90;;;;;;5059288;28;20037;-69
2023/05/04 12:33:40;;;;;;;6.47;3.67;;;31.60;99.90;;;;;;5059252;28;20178;-69
2023/05/04 12:36:06;;;;;;;5.45;3.28;;;32.30;99.90;;;;;;5059267;28;20392;-65
2023/05/04 12:38:33;;;;;;;4.63;2.90;;;31.70;99.90;;;;;;5059243;28;20037;-67
2023/05/04 12:41:01;;;;;;;7.20;3.72;;;31.10;99.90;;;;;;5058591;28;20068;-69
2023/05/04 12:43:27;;;;;;;4.30;3.90;;;31.10;99.90;;;;;;5058627;28;20116;-68
2023/05/04 12:45:53;;;;;;;4.57;4.00;;;31.60;99.90;;;;;;5058205;28;20132;-69
2023/05/04 12:48:19;;;;;;;3.75;3.20;;;31.40;99.90;;;;;;5058180;28;20024;-69
2023/05/04 12:50:49;;;;;;;3.95;3.55;;;32.40;99.90;;;;;;5058957;28;20033;-67
2023/05/04 12:53:16;;;;;;;4.00;3.13;;;32.00;99.90;;;;;;5058181;28;20036;-70
2023/05/04 12:55:42;;;;;;;5.95;3.45;;;32.90;99.90;;;;;;5058078;28;20028;-68
2023/05/04 12:58:08;;;;;;;4.32;3.63;;;32.50;99.90;;;;;;5058051;28;20033;-68